createdAt,value
2022-09-21T00:01:09.598Z,98992.31
2022-09-21T00:03:37.359Z,98984.38
2022-09-21T00:06:11.857Z,98989.28
2022-09-21T00:08:38.837Z,98991.69
2022-09-21T00:11:06.428Z,98993.06
2022-09-21T00:13:34.760Z,98997.81
2022-09-21T00:16:01.677Z,99001.22
2022-09-21T00:18:28.386Z,98998.63
2022-09-21T00:20:55.158Z,99004.06
2022-09-21T00:23:21.769Z,98959.97
2022-09-21T00:25:48.458Z,98955.66
2022-09-21T00:28:15.337Z,98976.53
2022-09-21T00:30:41.989Z,98990.28
2022-09-21T00:33:08.648Z,98989.06
2022-09-21T00:35:35.292Z,98989.22
2022-09-21T00:38:03.461Z,98969.19
2022-09-21T00:40:30.987Z,99008.75
2022-09-21T00:43:15.254Z,98996.91
2022-09-21T00:45:43.576Z,98984.38
2022-09-21T00:48:10.718Z,98992.81
2022-09-21T00:50:40.283Z,99001.84
2022-09-21T00:53:06.920Z,99002.13
2022-09-21T00:55:56.007Z,99000.50
2022-09-21T00:58:30.464Z,98989.53
2022-09-21T01:00:59.092Z,98998.69
2022-09-21T01:03:25.830Z,98974.09
2022-09-21T01:05:52.433Z,98986.91
2022-09-21T01:08:20.679Z,98996.84
2022-09-21T01:10:47.247Z,98996.84
2022-09-21T01:13:26.083Z,98988.63
2022-09-21T01:16:15.730Z,98988.47
2022-09-21T01:18:48.237Z,98985.53
2022-09-21T01:21:30.617Z,98966.41
2022-09-21T01:24:23.375Z,98979.06
2022-09-21T01:26:59.009Z,98986.75
2022-09-21T01:29:32.669Z,98979.00
2022-09-21T01:32:06.474Z,98992.59
2022-09-21T01:34:39.731Z,98994.22
2022-09-21T01:37:11.163Z,98980.91
2022-09-21T01:39:39.251Z,98979.19
2022-09-21T01:42:07.338Z,98994.81
2022-09-21T01:44:36.108Z,98957.81
2022-09-21T01:47:04.097Z,99000.88
2022-09-21T01:49:35.146Z,98986.41
2022-09-21T01:52:12.412Z,98993.69
2022-09-21T01:54:44.137Z,98997.69
2022-09-21T01:57:26.649Z,98985.22
2022-09-21T01:59:55.268Z,98980.84
2022-09-21T02:02:40.414Z,99005.06
2022-09-21T02:05:07.640Z,98984.38
2022-09-21T02:07:35.070Z,98994.44
2022-09-21T02:10:03.138Z,98992.75
2022-09-21T02:12:33.116Z,98986.84
2022-09-21T02:15:01.089Z,98994.31
2022-09-21T02:17:31.354Z,98987.66
2022-09-21T02:20:19.880Z,98993.63
2022-09-21T02:23:17.750Z,98994.59
2022-09-21T02:26:06.794Z,98997.91
2022-09-21T02:28:44.279Z,98999.75
2022-09-21T02:31:32.927Z,98999.00
2022-09-21T02:34:05.123Z,98998.91
2022-09-21T02:36:43.522Z,98996.31
2022-09-21T02:39:15.938Z,98981.25
2022-09-21T02:42:03.763Z,98993.53
2022-09-21T02:44:34.425Z,98988.63
2022-09-21T02:47:15.030Z,98996.22
2022-09-21T02:49:46.039Z,98995.91
2022-09-21T02:52:16.202Z,99004.06
2022-09-21T02:54:45.364Z,99002.91
2022-09-21T02:57:13.054Z,98978.00
2022-09-21T02:59:40.342Z,98989.69
2022-09-21T03:02:07.214Z,98989.97
2022-09-21T03:04:34.196Z,98991.00
2022-09-21T03:07:00.907Z,98985.84
2022-09-21T03:09:27.652Z,98965.25
2022-09-21T03:11:54.864Z,98976.91
2022-09-21T03:14:23.018Z,98971.75
2022-09-21T03:16:49.834Z,98944.31
2022-09-21T03:19:16.881Z,98970.63
2022-09-21T03:21:44.762Z,98956.44
2022-09-21T03:24:11.993Z,98951.00
2022-09-21T03:26:39.157Z,98938.38
2022-09-21T03:29:05.883Z,98925.41
2022-09-21T03:31:32.655Z,98895.56
2022-09-21T03:33:59.501Z,98914.97
2022-09-21T03:36:26.110Z,98896.91
2022-09-21T03:38:52.770Z,98896.09
2022-09-21T03:41:19.529Z,98871.66
2022-09-21T03:43:46.134Z,98899.09
2022-09-21T03:46:12.814Z,98902.34
2022-09-21T03:48:42.494Z,98897.72
2022-09-21T03:51:09.276Z,98892.66
2022-09-21T03:53:35.945Z,98894.03
2022-09-21T03:56:02.692Z,98883.97
2022-09-21T03:58:29.286Z,98893.25
2022-09-21T04:01:01.442Z,98885.88
2022-09-21T04:03:28.061Z,98904.81
2022-09-21T04:05:54.677Z,98895.28
2022-09-21T04:08:21.603Z,98894.50
2022-09-21T04:10:48.206Z,98891.97
2022-09-21T04:13:14.796Z,98894.78
2022-09-21T04:15:41.525Z,98903.28
2022-09-21T04:18:08.535Z,98910.56
2022-09-21T04:20:35.230Z,98905.41
2022-09-21T04:23:01.926Z,98902.13
2022-09-21T04:25:28.858Z,98876.38
2022-09-21T04:27:55.774Z,98896.09
2022-09-21T04:30:22.412Z,98909.03
2022-09-21T04:32:49.121Z,98916.31
2022-09-21T04:35:15.953Z,98914.84
2022-09-21T04:37:42.801Z,98905.09
2022-09-21T04:40:09.858Z,98895.56
2022-09-21T04:42:36.547Z,98899.16
2022-09-21T04:45:03.773Z,98906.78
2022-09-21T04:47:31.159Z,98889.88
2022-09-21T04:49:57.884Z,98880.09
2022-09-21T04:52:24.614Z,98908.84
2022-09-21T04:54:51.256Z,98920.06
2022-09-21T04:57:17.872Z,98910.84
2022-09-21T04:59:44.536Z,98915.06
2022-09-21T05:02:11.490Z,98897.78
2022-09-21T05:04:38.168Z,98884.13
2022-09-21T05:07:04.864Z,98879.25
2022-09-21T05:09:50.056Z,98887.38
2022-09-21T05:12:16.722Z,98895.13
2022-09-21T05:14:45.051Z,98890.06
2022-09-21T05:17:12.556Z,98888.44
2022-09-21T05:19:40.137Z,98889.09
2022-09-21T05:22:06.844Z,98892.34
2022-09-21T05:24:33.532Z,98902.56
2022-09-21T05:27:00.398Z,98902.72
2022-09-21T05:29:27.453Z,98896.81
2022-09-21T05:32:19.104Z,98905.19
2022-09-21T05:35:03.807Z,98929.16
2022-09-21T05:37:39.626Z,98924.00
2022-09-21T05:40:07.814Z,98920.41
2022-09-21T05:42:34.809Z,98907.78
2022-09-21T05:45:01.768Z,98917.28
2022-09-21T05:47:39.190Z,98926.69
2022-09-21T05:50:06.053Z,98934.03
2022-09-21T05:52:48.201Z,98922.19
2022-09-21T05:55:33.141Z,98945.09
2022-09-21T05:58:02.160Z,98953.72
2022-09-21T06:00:38.505Z,98953.78
2022-09-21T06:03:29.432Z,98957.09
2022-09-21T06:05:59.537Z,98965.22
2022-09-21T06:08:26.942Z,98966.91
2022-09-21T06:10:56.257Z,98959.81
2022-09-21T06:13:22.869Z,98966.44
2022-09-21T06:15:49.574Z,98964.75
2022-09-21T06:18:18.159Z,98955.19
2022-09-21T06:20:45.477Z,98932.00
2022-09-21T06:23:13.549Z,98948.53
2022-09-21T06:25:40.298Z,98932.75
2022-09-21T06:28:09.902Z,98939.84
2022-09-21T06:30:37.100Z,98930.97
2022-09-21T06:33:05.394Z,98931.75
2022-09-21T06:35:33.475Z,98936.28
2022-09-21T06:38:01.449Z,98926.78
2022-09-21T06:40:29.394Z,98923.19
2022-09-21T06:42:58.123Z,98922.38
2022-09-21T06:45:25.798Z,98913.22
2022-09-21T06:47:52.519Z,98914.19
2022-09-21T06:50:19.884Z,98910.63
2022-09-21T06:52:47.074Z,98904.63
2022-09-21T06:55:14.919Z,98901.34
2022-09-21T06:57:41.783Z,98914.94
2022-09-21T07:00:13.487Z,98903.88
2022-09-21T07:02:46.531Z,98919.66
2022-09-21T07:05:13.803Z,98914.16
2022-09-21T07:07:40.595Z,98919.41
2022-09-21T07:10:13.120Z,98931.72
2022-09-21T07:12:43.294Z,98930.59
2022-09-21T07:15:10.662Z,98929.19
2022-09-21T07:17:39.114Z,98938.88
2022-09-21T07:20:08.036Z,98936.97
2022-09-21T07:22:35.708Z,98940.69
2022-09-21T07:25:03.465Z,98944.47
2022-09-21T07:27:31.168Z,98952.41
2022-09-21T07:29:57.839Z,98952.31
2022-09-21T07:32:26.062Z,98956.97
2022-09-21T07:34:56.522Z,98947.41
2022-09-21T07:37:24.768Z,98961.16
2022-09-21T07:39:53.061Z,98966.91
2022-09-21T07:42:22.764Z,98964.56
2022-09-21T07:44:50.279Z,98955.84
2022-09-21T07:47:18.028Z,98965.41
2022-09-21T07:49:46.768Z,98937.84
2022-09-21T07:52:13.874Z,98989.16
2022-09-21T07:54:54.596Z,98910.78
2022-09-21T07:57:39.845Z,98957.47
2022-09-21T08:00:07.036Z,98945.56
2022-09-21T08:02:33.747Z,98912.84
2022-09-21T08:05:00.632Z,98928.94
2022-09-21T08:07:28.471Z,98964.84
2022-09-21T08:09:55.144Z,98917.50
2022-09-21T08:12:21.889Z,98921.44
2022-09-21T08:14:48.593Z,98928.59
2022-09-21T08:17:15.364Z,98927.44
2022-09-21T08:19:42.017Z,98957.50
2022-09-21T08:22:11.736Z,98924.06
2022-09-21T08:24:39.018Z,98920.00
2022-09-21T08:27:05.846Z,98944.13
2022-09-21T08:29:32.639Z,98916.75
2022-09-21T08:31:59.342Z,98920.44
2022-09-21T08:34:26.511Z,98873.25
2022-09-21T08:36:55.683Z,98880.72
2022-09-21T08:39:23.686Z,98903.00
2022-09-21T08:42:11.009Z,98908.25
2022-09-21T08:44:40.428Z,98899.81
2022-09-21T08:47:12.810Z,98912.97
2022-09-21T08:49:41.558Z,98918.00
2022-09-21T08:52:15.997Z,98915.88
2022-09-21T08:54:55.864Z,98910.06
2022-09-21T08:57:25.719Z,98906.56
2022-09-21T08:59:55.026Z,98911.34
2022-09-21T09:02:39.038Z,98910.16
2022-09-21T09:05:08.779Z,98921.41
2022-09-21T09:07:47.751Z,98920.44
2022-09-21T09:10:20.453Z,98930.50
2022-09-21T09:13:31.914Z,98928.16
2022-09-21T09:16:19.500Z,98943.06
2022-09-21T09:18:49.290Z,98957.00
2022-09-21T09:21:29.108Z,98956.25
2022-09-21T09:24:33.750Z,98965.94
2022-09-21T09:27:07.628Z,98960.66
2022-09-21T09:30:03.472Z,98960.56
2022-09-21T09:32:52.667Z,98957.44
2022-09-21T09:35:29.643Z,98962.63
2022-09-21T09:38:27.941Z,98953.44
2022-09-21T09:41:05.767Z,98952.03
2022-09-21T09:43:41.515Z,98945.25
2022-09-21T09:46:16.528Z,98943.41
2022-09-21T09:49:09.594Z,98947.00
2022-09-21T09:51:37.738Z,98925.75
2022-09-21T09:54:09.517Z,98934.66
2022-09-21T09:56:36.915Z,98934.66
2022-09-21T09:59:08.339Z,98929.13
2022-09-21T10:01:44.205Z,98910.66
2022-09-21T10:04:13.401Z,98931.66
2022-09-21T10:06:45.837Z,98929.38
2022-09-21T10:09:33.272Z,98933.13
2022-09-21T10:12:17.327Z,98928.47
2022-09-21T10:14:49.907Z,98927.69
2022-09-21T10:17:17.517Z,98946.56
2022-09-21T10:19:44.345Z,98938.19
2022-09-21T10:22:17.586Z,98934.47
2022-09-21T10:24:50.445Z,98928.38
2022-09-21T10:27:22.679Z,98932.09
2022-09-21T10:29:52.623Z,98908.31
2022-09-21T10:32:31.058Z,98895.34
2022-09-21T10:35:10.565Z,98944.19
2022-09-21T10:37:41.166Z,98926.03
2022-09-21T10:40:20.094Z,98951.50
2022-09-21T10:42:51.130Z,98954.81
2022-09-21T10:45:19.075Z,98948.22
2022-09-21T10:47:48.929Z,98964.22
2022-09-21T10:50:30.128Z,98971.53
2022-09-21T10:53:32.392Z,98979.84
2022-09-21T10:56:17.197Z,98988.28
2022-09-21T10:59:13.829Z,98993.59
2022-09-21T11:01:45.956Z,98985.13
2022-09-21T11:04:39.966Z,99002.88
2022-09-21T11:07:20.163Z,98998.84
2022-09-21T11:10:04.206Z,99001.78
2022-09-21T11:12:49.331Z,99002.13
2022-09-21T11:15:41.380Z,99007.13
2022-09-21T11:18:53.341Z,99006.06
2022-09-21T11:21:41.989Z,99007.41
2022-09-21T11:24:29.894Z,99011.75
2022-09-21T11:27:04.277Z,99009.47
2022-09-21T11:30:12.378Z,99008.66
2022-09-21T11:32:59.306Z,98997.94
2022-09-21T11:36:00.136Z,98997.94
2022-09-21T11:38:57.262Z,98991.47
2022-09-21T11:41:44.313Z,98996.28
2022-09-21T11:44:32.354Z,98986.38
2022-09-21T11:47:26.535Z,98997.50
2022-09-21T11:50:28.816Z,99001.38
2022-09-21T11:53:17.477Z,98981.91
2022-09-21T11:55:48.463Z,98993.59
2022-09-21T11:58:29.719Z,98981.81
2022-09-21T12:01:12.379Z,98987.25
2022-09-21T12:03:56.057Z,98986.09
2022-09-21T12:06:43.302Z,98977.44
2022-09-21T12:09:28.692Z,98974.66
2022-09-21T12:12:11.471Z,98969.72
2022-09-21T12:15:03.860Z,98972.53
2022-09-21T12:17:38.840Z,98976.75
2022-09-21T12:20:29.678Z,98969.13
2022-09-21T12:23:27.544Z,98975.09
2022-09-21T12:25:57.418Z,98974.97
2022-09-21T12:29:16.477Z,98975.91
2022-09-21T12:31:49.927Z,98882.09
2022-09-21T12:34:22.794Z,98924.31
2022-09-21T12:37:05.300Z,98912.28
2022-09-21T12:39:43.425Z,98984.03
2022-09-21T12:42:13.550Z,99006.22
2022-09-21T12:44:53.981Z,99011.25
2022-09-21T12:47:32.864Z,99018.91
2022-09-21T12:50:04.138Z,99024.75
2022-09-21T12:52:33.181Z,98990.38
2022-09-21T12:55:05.799Z,99061.13
2022-09-21T13:01:14.644Z,99065.72
2022-09-21T13:03:55.315Z,99084.28
2022-09-21T13:06:43.778Z,99089.41
2022-09-21T13:09:13.596Z,99065.56
2022-09-21T13:12:26.243Z,99084.88
2022-09-21T13:14:59.619Z,99074.81
2022-09-21T13:17:31.165Z,99073.09
2022-09-21T13:20:17.269Z,99084.78
2022-09-21T13:22:44.497Z,99055.84
2022-09-21T13:25:23.949Z,99057.31
2022-09-21T13:28:10.024Z,99061.44
2022-09-21T13:30:40.681Z,99051.34
2022-09-21T13:33:23.881Z,99057.00
2022-09-21T13:36:02.626Z,99051.53
2022-09-21T13:38:37.518Z,99040.16
2022-09-21T13:41:19.402Z,99041.41
2022-09-21T13:44:01.099Z,99042.06
2022-09-21T13:46:37.110Z,99046.81
2022-09-21T13:49:17.101Z,99027.41
2022-09-21T13:52:08.709Z,99034.75
2022-09-21T13:54:49.030Z,99034.78
2022-09-21T13:57:19.144Z,99029.41
2022-09-21T13:59:49.665Z,99017.22
2022-09-21T14:02:37.326Z,99035.22
2022-09-21T14:05:10.628Z,99038.63
2022-09-21T14:10:18.681Z,99041.22
2022-09-21T14:12:45.839Z,99037.22
2022-09-21T14:15:19.613Z,99027.16
2022-09-21T14:18:12.288Z,99015.84
2022-09-21T14:20:39.794Z,99007.69
2022-09-21T14:23:16.453Z,98999.63
2022-09-21T14:25:49.286Z,99001.28
2022-09-21T14:28:17.781Z,99001.47
2022-09-21T14:30:50.624Z,98993.31
2022-09-21T14:33:28.086Z,98998.28
2022-09-21T14:35:55.285Z,98985.81
2022-09-21T14:38:28.611Z,99005.06
2022-09-21T14:41:00.716Z,99006.06
2022-09-21T14:43:33.962Z,99000.16
2022-09-21T14:46:03.502Z,99027.22
2022-09-21T14:48:43.437Z,99036.88
2022-09-21T14:51:55.803Z,99039.38
2022-09-21T14:54:53.116Z,99051.41
2022-09-21T14:57:35.403Z,99051.09
2022-09-21T15:00:26.492Z,99057.88
2022-09-21T15:03:39.259Z,99057.56
2022-09-21T15:06:39.722Z,99071.50
2022-09-21T15:09:48.766Z,99060.72
2022-09-21T15:12:22.510Z,99047.31
2022-09-21T15:14:57.376Z,99077.16
2022-09-21T15:17:26.408Z,99081.06
2022-09-21T15:19:58.497Z,99089.53
2022-09-21T15:22:26.083Z,99088.53
2022-09-21T15:24:54.966Z,99102.19
2022-09-21T15:27:24.461Z,99103.13
2022-09-21T15:29:53.826Z,99099.31
2022-09-21T15:32:37.841Z,99106.75
2022-09-21T15:35:18.623Z,99117.81
2022-09-21T15:37:48.553Z,99113.09
2022-09-21T15:40:18.871Z,99117.81
2022-09-21T15:43:04.739Z,99121.91
2022-09-21T15:46:10.084Z,99112.81
2022-09-21T15:48:39.853Z,99119.53
2022-09-21T15:51:31.000Z,99116.06
2022-09-21T15:54:09.910Z,99125.59
2022-09-21T15:56:41.332Z,99123.81
2022-09-21T15:59:15.154Z,99126.44
2022-09-21T16:01:48.094Z,99135.09
2022-09-21T16:04:22.764Z,99135.41
2022-09-21T16:07:04.251Z,99135.41
2022-09-21T16:09:46.837Z,99146.56
2022-09-21T16:12:25.761Z,99142.88
2022-09-21T16:14:53.904Z,99124.00
2022-09-21T16:17:22.335Z,99143.03
2022-09-21T16:19:49.993Z,99140.13
2022-09-21T16:22:28.115Z,99125.59
2022-09-21T16:24:58.072Z,99128.56
2022-09-21T16:27:27.717Z,99133.31
2022-09-21T16:29:56.070Z,99136.69
2022-09-21T16:32:29.387Z,99141.59
2022-09-21T16:35:31.540Z,99129.75
2022-09-21T16:37:58.837Z,99139.28
2022-09-21T16:40:27.033Z,99149.44
2022-09-21T16:42:54.295Z,99145.38
2022-09-21T16:45:31.882Z,99156.63
2022-09-21T16:47:59.596Z,99164.41
2022-09-21T16:50:26.481Z,99161.94
2022-09-21T16:52:53.184Z,99159.25
2022-09-21T16:55:22.432Z,99136.03
2022-09-21T16:57:51.209Z,99156.13
2022-09-21T17:00:22.275Z,99157.91
2022-09-21T17:02:49.573Z,99169.22
2022-09-21T17:05:18.183Z,99165.13
2022-09-21T17:07:58.703Z,99189.59
2022-09-21T17:10:35.885Z,99161.28
2022-09-21T17:13:05.851Z,99192.84
2022-09-21T17:15:33.886Z,99191.44
2022-09-21T17:18:00.509Z,99205.13
2022-09-21T17:20:34.099Z,99199.34
2022-09-21T17:23:04.300Z,99212.44
2022-09-21T17:25:32.937Z,99210.88
2022-09-21T17:28:00.566Z,99224.13
2022-09-21T17:30:27.433Z,99206.97
2022-09-21T17:32:54.887Z,99209.59
2022-09-21T17:35:41.637Z,99187.16
2022-09-21T17:38:13.895Z,99218.56
2022-09-21T17:40:41.283Z,99217.06
2022-09-21T17:43:14.089Z,99229.13
2022-09-21T17:46:08.450Z,99220.13
2022-09-21T17:48:40.717Z,99226.16
2022-09-21T17:51:08.160Z,99233.91
2022-09-21T17:53:37.073Z,99198.97
2022-09-21T17:56:09.983Z,99223.91
2022-09-21T17:58:48.807Z,99222.53
2022-09-21T18:01:36.187Z,99218.22
2022-09-21T18:04:04.090Z,99207.41
2022-09-21T18:06:31.675Z,99203.75
2022-09-21T18:08:58.736Z,99210.56
2022-09-21T18:12:06.615Z,99191.56
2022-09-21T18:15:08.775Z,99195.88
2022-09-21T18:17:47.566Z,99194.34
2022-09-21T18:20:23.333Z,99185.44
2022-09-21T18:22:54.220Z,99190.16
2022-09-21T18:25:33.852Z,99194.16
2022-09-21T18:28:12.482Z,99180.84
2022-09-21T18:30:43.431Z,99210.16
2022-09-21T18:33:27.509Z,99197.44
2022-09-21T18:36:22.346Z,99184.25
2022-09-21T18:39:01.480Z,99215.13
2022-09-21T18:41:48.398Z,99224.84
2022-09-21T18:44:21.647Z,99226.97
2022-09-21T18:46:57.695Z,99226.16
2022-09-21T18:49:36.366Z,99230.84
2022-09-21T18:52:07.498Z,99232.53
2022-09-21T18:54:35.539Z,99221.81
2022-09-21T18:57:05.932Z,99239.75
2022-09-21T18:59:32.890Z,99243.16
2022-09-21T19:02:53.514Z,99206.22
2022-09-21T19:10:39.018Z,99247.97
2022-09-21T19:13:36.322Z,99258.41
2022-09-21T19:16:02.910Z,99257.72
2022-09-21T19:18:52.373Z,99260.19
2022-09-21T19:21:30.982Z,99255.72
2022-09-21T19:24:35.788Z,99241.16
2022-09-21T19:27:31.789Z,99247.81
2022-09-21T19:30:08.972Z,99248.66
2022-09-21T19:32:46.249Z,99242.72
2022-09-21T19:35:28.089Z,99235.09
2022-09-21T19:37:57.706Z,99221.41
2022-09-21T19:40:45.149Z,99243.34
2022-09-21T19:43:33.963Z,99238.63
2022-09-21T19:46:12.472Z,99226.25
2022-09-21T19:48:43.553Z,99224.91
2022-09-21T19:51:18.900Z,99218.75
2022-09-21T19:54:04.629Z,99209.69
2022-09-21T19:56:55.250Z,99194.00
2022-09-21T19:59:41.214Z,99199.06
2022-09-21T20:02:15.349Z,99187.19
2022-09-21T20:05:06.674Z,99189.88
2022-09-21T20:07:53.276Z,99177.81
2022-09-21T20:10:23.015Z,99176.13
2022-09-21T20:12:50.791Z,99173.44
2022-09-21T20:15:20.697Z,99166.19
2022-09-21T20:17:54.659Z,99156.75
2022-09-21T20:20:26.577Z,99156.13
2022-09-21T20:22:54.553Z,99150.75
2022-09-21T20:25:57.265Z,99153.13
2022-09-21T20:28:24.277Z,99158.28
2022-09-21T20:30:51.562Z,99163.72
2022-09-21T20:33:23.315Z,99158.69
2022-09-21T20:35:53.006Z,99164.19
2022-09-21T20:38:19.755Z,99150.38
2022-09-21T20:40:46.582Z,99166.16
2022-09-21T20:43:16.533Z,99172.84
2022-09-21T20:45:47.844Z,99181.63
2022-09-21T20:48:14.679Z,99164.75
2022-09-21T20:50:48.844Z,99159.69
2022-09-21T20:53:15.644Z,99183.72
2022-09-21T20:55:43.889Z,99183.91
2022-09-21T20:58:12.592Z,99175.63
2022-09-21T21:00:39.550Z,99190.91
2022-09-21T21:03:06.158Z,99194.72
2022-09-21T21:05:32.858Z,99197.34
2022-09-21T21:07:59.870Z,99195.00
2022-09-21T21:10:26.528Z,99206.31
2022-09-21T21:12:53.183Z,99196.06
2022-09-21T21:15:20.049Z,99208.84
2022-09-21T21:17:48.303Z,99214.22
2022-09-21T21:20:16.808Z,99204.91
2022-09-21T21:22:49.945Z,99208.41
2022-09-21T21:25:16.943Z,99218.72
2022-09-21T21:27:43.631Z,99198.59
2022-09-21T21:30:11.983Z,99228.63
2022-09-21T21:32:38.614Z,99222.97
2022-09-21T21:35:05.827Z,99228.06
2022-09-21T21:37:32.859Z,99233.06
2022-09-21T21:39:59.503Z,99219.47
2022-09-21T21:42:28.710Z,99223.66
2022-09-21T21:44:56.015Z,99225.81
2022-09-21T21:50:10.105Z,99219.84
2022-09-21T21:52:37.540Z,99218.31
2022-09-21T21:55:07.488Z,99205.06
2022-09-21T21:57:34.101Z,99203.09
2022-09-21T22:00:00.948Z,99214.31
2022-09-21T22:02:29.486Z,99229.72
2022-09-21T22:04:56.190Z,99229.03
2022-09-21T22:07:22.909Z,99210.63
2022-09-21T22:09:49.879Z,99228.19
2022-09-21T22:12:16.800Z,99237.00
2022-09-21T22:14:46.381Z,99222.31
2022-09-21T22:17:13.163Z,99225.84
2022-09-21T22:19:39.858Z,99224.94
2022-09-21T22:22:06.587Z,99224.38
2022-09-21T22:24:33.253Z,99222.69
2022-09-21T22:27:00.006Z,99215.63
2022-09-21T22:29:26.692Z,99213.97
2022-09-21T22:31:55.328Z,99220.84
2022-09-21T22:34:22.179Z,99209.16
2022-09-21T22:36:48.891Z,99218.56
2022-09-21T22:39:15.698Z,99214.81
2022-09-21T22:41:43.042Z,99221.00
2022-09-21T22:44:10.786Z,99219.47
2022-09-21T22:46:38.219Z,99220.09
2022-09-21T22:49:05.308Z,99212.81
2022-09-21T22:51:32.212Z,99213.56
2022-09-21T22:53:58.968Z,99210.78
2022-09-21T22:56:27.941Z,99222.81
2022-09-21T22:58:57.382Z,99223.13
2022-09-21T23:01:26.996Z,99216.53
2022-09-21T23:03:56.235Z,99215.47
2022-09-21T23:06:26.165Z,99234.94
2022-09-21T23:08:54.624Z,99239.22
2022-09-21T23:11:22.559Z,99240.59
2022-09-21T23:13:49.585Z,99244.28
2022-09-21T23:16:17.208Z,99248.81
2022-09-21T23:18:44.421Z,99253.25
2022-09-21T23:21:14.372Z,99254.59
2022-09-21T23:23:41.477Z,99266.72
2022-09-21T23:26:14.208Z,99264.22
2022-09-21T23:28:42.879Z,99271.34
2022-09-21T23:31:11.452Z,99280.16
2022-09-21T23:33:40.568Z,99277.91
2022-09-21T23:36:08.859Z,99285.59
2022-09-21T23:38:36.335Z,99294.44
2022-09-21T23:41:07.185Z,99302.38
2022-09-21T23:43:34.909Z,99299.06
2022-09-21T23:46:02.042Z,99304.22
2022-09-21T23:48:29.100Z,99294.13
2022-09-21T23:50:56.667Z,99279.81
2022-09-21T23:53:24.213Z,99291.75
2022-09-21T23:55:53.400Z,99300.63
2022-09-21T23:58:20.044Z,99307.16
